sensor_id;sensor_type;location;lat;lon;timestamp;P1;durP1;ratioP1;P2;durP2;ratioP2
68608;SDS011;55581;46.718;7.690;2022-07-06T00:01:46;5.17;;;1.50;;
68608;SDS011;55581;46.718;7.690;2022-07-06T00:04:12;3.17;;;1.47;;
68608;SDS011;55581;46.718;7.690;2022-07-06T00:06:38;2.95;;;1.13;;
68608;SDS011;55581;46.718;7.690;2022-07-06T00:09:05;2.77;;;1.00;;
68608;SDS011;55581;46.718;7.690;2022-07-06T00:11:30;4.53;;;1.00;;
68608;SDS011;55581;46.718;7.690;2022-07-06T00:13:56;5.03;;;1.00;;
68608;SDS011;55581;46.718;7.690;2022-07-06T00:16:24;7.23;;;1.27;;
68608;SDS011;55581;46.718;7.690;2022-07-06T00:18:50;4.22;;;1.00;;
68608;SDS011;55581;46.718;7.690;2022-07-06T00:21:16;3.47;;;0.90;;
68608;SDS011;55581;46.718;7.690;2022-07-06T00:23:42;5.70;;;1.43;;
68608;SDS011;55581;46.718;7.690;2022-07-06T00:26:08;4.15;;;1.17;;
68608;SDS011;55581;46.718;7.690;2022-07-06T00:28:33;2.70;;;0.90;;
68608;SDS011;55581;46.718;7.690;2022-07-06T00:30:59;3.25;;;1.10;;
68608;SDS011;55581;46.718;7.690;2022-07-06T00:33:30;3.30;;;0.90;;
68608;SDS011;55581;46.718;7.690;2022-07-06T00:35:55;6.63;;;1.10;;
68608;SDS011;55581;46.718;7.690;2022-07-06T00:38:21;4.32;;;1.30;;
68608;SDS011;55581;46.718;7.690;2022-07-06T00:40:46;4.53;;;1.07;;
68608;SDS011;55581;46.718;7.690;2022-07-06T00:43:12;4.45;;;1.10;;
68608;SDS011;55581;46.718;7.690;2022-07-06T00:45:37;5.10;;;1.13;;
68608;SDS011;55581;46.718;7.690;2022-07-06T00:48:03;3.47;;;0.90;;
68608;SDS011;55581;46.718;7.690;2022-07-06T00:50:29;3.00;;;1.10;;
68608;SDS011;55581;46.718;7.690;2022-07-06T00:52:56;3.40;;;0.90;;
68608;SDS011;55581;46.718;7.690;2022-07-06T00:55:26;4.70;;;1.10;;
68608;SDS011;55581;46.718;7.690;2022-07-06T00:57:56;3.50;;;1.13;;
68608;SDS011;55581;46.718;7.690;2022-07-06T01:00:26;4.53;;;1.38;;
68608;SDS011;55581;46.718;7.690;2022-07-06T01:02:53;2.80;;;1.00;;
68608;SDS011;55581;46.718;7.690;2022-07-06T01:05:19;2.22;;;0.90;;
68608;SDS011;55581;46.718;7.690;2022-07-06T01:07:46;3.45;;;1.15;;
68608;SDS011;55581;46.718;7.690;2022-07-06T01:10:13;3.00;;;1.10;;
68608;SDS011;55581;46.718;7.690;2022-07-06T01:12:42;4.13;;;1.00;;
68608;SDS011;55581;46.718;7.690;2022-07-06T01:15:12;3.63;;;1.00;;
68608;SDS011;55581;46.718;7.690;2022-07-06T01:17:39;6.45;;;1.38;;
68608;SDS011;55581;46.718;7.690;2022-07-06T01:20:15;3.42;;;1.13;;
68608;SDS011;55581;46.718;7.690;2022-07-06T01:22:45;3.23;;;1.10;;
68608;SDS011;55581;46.718;7.690;2022-07-06T01:25:12;6.72;;;1.23;;
68608;SDS011;55581;46.718;7.690;2022-07-06T01:27:38;4.57;;;1.30;;
68608;SDS011;55581;46.718;7.690;2022-07-06T01:30:05;7.23;;;1.40;;
68608;SDS011;55581;46.718;7.690;2022-07-06T01:32:32;4.25;;;1.08;;
68608;SDS011;55581;46.718;7.690;2022-07-06T01:34:58;2.60;;;1.00;;
68608;SDS011;55581;46.718;7.690;2022-07-06T01:37:24;4.78;;;1.02;;
68608;SDS011;55581;46.718;7.690;2022-07-06T01:39:51;3.27;;;0.73;;
68608;SDS011;55581;46.718;7.690;2022-07-06T01:42:16;5.00;;;1.02;;
68608;SDS011;55581;46.718;7.690;2022-07-06T01:44:42;3.07;;;1.10;;
68608;SDS011;55581;46.718;7.690;2022-07-06T01:47:10;3.88;;;0.98;;
68608;SDS011;55581;46.718;7.690;2022-07-06T01:49:36;5.65;;;0.90;;
68608;SDS011;55581;46.718;7.690;2022-07-06T01:52:02;2.30;;;0.80;;
68608;SDS011;55581;46.718;7.690;2022-07-06T01:54:28;2.72;;;1.00;;
68608;SDS011;55581;46.718;7.690;2022-07-06T01:56:56;2.65;;;0.80;;
68608;SDS011;55581;46.718;7.690;2022-07-06T01:59:21;4.53;;;1.03;;
68608;SDS011;55581;46.718;7.690;2022-07-06T02:01:49;4.67;;;0.97;;
68608;SDS011;55581;46.718;7.690;2022-07-06T02:04:15;4.43;;;1.10;;
68608;SDS011;55581;46.718;7.690;2022-07-06T02:06:42;5.68;;;0.98;;
68608;SDS011;55581;46.718;7.690;2022-07-06T02:09:07;4.70;;;0.87;;
68608;SDS011;55581;46.718;7.690;2022-07-06T02:11:33;3.10;;;1.00;;
68608;SDS011;55581;46.718;7.690;2022-07-06T02:14:01;3.10;;;0.97;;
68608;SDS011;55581;46.718;7.690;2022-07-06T02:16:27;3.42;;;0.75;;
68608;SDS011;55581;46.718;7.690;2022-07-06T02:18:52;3.10;;;0.87;;
68608;SDS011;55581;46.718;7.690;2022-07-06T02:21:20;6.05;;;0.90;;
68608;SDS011;55581;46.718;7.690;2022-07-06T02:23:45;3.63;;;1.10;;
68608;SDS011;55581;46.718;7.690;2022-07-06T02:26:11;3.97;;;1.43;;
68608;SDS011;55581;46.718;7.690;2022-07-06T02:28:36;2.90;;;0.90;;
68608;SDS011;55581;46.718;7.690;2022-07-06T02:31:04;3.95;;;0.75;;
68608;SDS011;55581;46.718;7.690;2022-07-06T02:33:30;3.60;;;0.80;;
68608;SDS011;55581;46.718;7.690;2022-07-06T02:35:55;4.35;;;1.10;;
68608;SDS011;55581;46.718;7.690;2022-07-06T02:38:21;5.77;;;1.30;;
68608;SDS011;55581;46.718;7.690;2022-07-06T02:40:46;6.70;;;1.23;;
68608;SDS011;55581;46.718;7.690;2022-07-06T02:43:14;3.83;;;0.90;;
68608;SDS011;55581;46.718;7.690;2022-07-06T02:45:39;3.43;;;1.07;;
68608;SDS011;55581;46.718;7.690;2022-07-06T02:48:07;5.30;;;1.33;;
68608;SDS011;55581;46.718;7.690;2022-07-06T02:50:33;4.30;;;1.20;;
68608;SDS011;55581;46.718;7.690;2022-07-06T02:52:59;3.65;;;1.00;;
68608;SDS011;55581;46.718;7.690;2022-07-06T02:55:26;3.90;;;1.10;;
68608;SDS011;55581;46.718;7.690;2022-07-06T02:57:51;4.37;;;1.10;;
68608;SDS011;55581;46.718;7.690;2022-07-06T03:00:19;4.68;;;1.02;;
68608;SDS011;55581;46.718;7.690;2022-07-06T03:02:44;5.33;;;1.27;;
68608;SDS011;55581;46.718;7.690;2022-07-06T03:05:11;4.55;;;1.10;;
68608;SDS011;55581;46.718;7.690;2022-07-06T03:07:36;4.13;;;1.00;;
68608;SDS011;55581;46.718;7.690;2022-07-06T03:10:02;4.05;;;1.05;;
68608;SDS011;55581;46.718;7.690;2022-07-06T03:12:28;3.17;;;0.87;;
68608;SDS011;55581;46.718;7.690;2022-07-06T03:14:54;2.97;;;0.90;;
68608;SDS011;55581;46.718;7.690;2022-07-06T03:17:22;2.90;;;0.83;;
68608;SDS011;55581;46.718;7.690;2022-07-06T03:19:48;2.25;;;0.85;;
68608;SDS011;55581;46.718;7.690;2022-07-06T03:22:13;4.23;;;1.13;;
68608;SDS011;55581;46.718;7.690;2022-07-06T03:24:39;3.33;;;0.83;;
68608;SDS011;55581;46.718;7.690;2022-07-06T03:27:04;5.35;;;1.20;;
68608;SDS011;55581;46.718;7.690;2022-07-06T03:29:30;4.27;;;1.10;;
68608;SDS011;55581;46.718;7.690;2022-07-06T03:31:55;3.80;;;0.93;;
68608;SDS011;55581;46.718;7.690;2022-07-06T03:34:21;2.47;;;0.80;;
68608;SDS011;55581;46.718;7.690;2022-07-06T03:36:46;2.80;;;0.83;;
68608;SDS011;55581;46.718;7.690;2022-07-06T03:39:12;3.33;;;1.13;;
68608;SDS011;55581;46.718;7.690;2022-07-06T03:41:37;7.57;;;0.90;;
68608;SDS011;55581;46.718;7.690;2022-07-06T03:44:03;2.10;;;0.60;;
68608;SDS011;55581;46.718;7.690;2022-07-06T03:46:29;2.47;;;0.75;;
68608;SDS011;55581;46.718;7.690;2022-07-06T03:48:54;5.23;;;0.90;;
68608;SDS011;55581;46.718;7.690;2022-07-06T03:51:21;3.75;;;0.90;;
68608;SDS011;55581;46.718;7.690;2022-07-06T03:53:46;3.30;;;0.80;;
68608;SDS011;55581;46.718;7.690;2022-07-06T03:56:12;4.57;;;0.90;;
68608;SDS011;55581;46.718;7.690;2022-07-06T03:58:52;3.20;;;1.03;;
68608;SDS011;55581;46.718;7.690;2022-07-06T04:01:18;3.42;;;0.98;;
68608;SDS011;55581;46.718;7.690;2022-07-06T04:03:43;4.57;;;1.00;;
68608;SDS011;55581;46.718;7.690;2022-07-06T04:06:13;6.43;;;1.00;;
68608;SDS011;55581;46.718;7.690;2022-07-06T04:08:39;3.72;;;0.82;;
68608;SDS011;55581;46.718;7.690;2022-07-06T04:11:04;3.83;;;0.90;;
68608;SDS011;55581;46.718;7.690;2022-07-06T04:13:32;2.85;;;1.10;;
68608;SDS011;55581;46.718;7.690;2022-07-06T04:15:57;4.43;;;0.80;;
68608;SDS011;55581;46.718;7.690;2022-07-06T04:18:23;4.30;;;0.93;;
68608;SDS011;55581;46.718;7.690;2022-07-06T04:20:48;4.57;;;1.35;;
68608;SDS011;55581;46.718;7.690;2022-07-06T04:23:16;5.77;;;1.00;;
68608;SDS011;55581;46.718;7.690;2022-07-06T04:25:41;3.78;;;0.88;;
68608;SDS011;55581;46.718;7.690;2022-07-06T04:28:07;3.67;;;1.00;;
68608;SDS011;55581;46.718;7.690;2022-07-06T04:30:35;3.38;;;0.80;;
68608;SDS011;55581;46.718;7.690;2022-07-06T04:33:00;4.67;;;1.10;;
68608;SDS011;55581;46.718;7.690;2022-07-06T04:35:26;4.97;;;0.80;;
68608;SDS011;55581;46.718;7.690;2022-07-06T04:37:51;4.38;;;1.05;;
68608;SDS011;55581;46.718;7.690;2022-07-06T04:40:16;4.60;;;1.10;;
68608;SDS011;55581;46.718;7.690;2022-07-06T04:42:42;3.13;;;1.10;;
68608;SDS011;55581;46.718;7.690;2022-07-06T04:45:08;4.97;;;0.88;;
68608;SDS011;55581;46.718;7.690;2022-07-06T04:47:34;4.00;;;0.90;;
68608;SDS011;55581;46.718;7.690;2022-07-06T04:50:01;5.85;;;0.90;;
68608;SDS011;55581;46.718;7.690;2022-07-06T04:52:27;5.20;;;1.02;;
68608;SDS011;55581;46.718;7.690;2022-07-06T04:54:53;3.57;;;1.10;;
68608;SDS011;55581;46.718;7.690;2022-07-06T04:57:20;4.70;;;1.10;;
68608;SDS011;55581;46.718;7.690;2022-07-06T04:59:46;3.65;;;1.45;;
68608;SDS011;55581;46.718;7.690;2022-07-06T05:02:13;4.37;;;1.30;;
68608;SDS011;55581;46.718;7.690;2022-07-06T05:04:40;8.80;;;1.38;;
68608;SDS011;55581;46.718;7.690;2022-07-06T05:07:09;4.32;;;1.52;;
68608;SDS011;55581;46.718;7.690;2022-07-06T05:09:34;3.17;;;1.17;;
68608;SDS011;55581;46.718;7.690;2022-07-06T05:12:02;5.78;;;1.10;;
68608;SDS011;55581;46.718;7.690;2022-07-06T05:14:28;7.00;;;2.00;;
68608;SDS011;55581;46.718;7.690;2022-07-06T05:16:55;2.72;;;1.10;;
68608;SDS011;55581;46.718;7.690;2022-07-06T05:19:21;5.03;;;1.30;;
68608;SDS011;55581;46.718;7.690;2022-07-06T05:21:46;5.10;;;1.50;;
68608;SDS011;55581;46.718;7.690;2022-07-06T05:24:13;3.40;;;1.33;;
68608;SDS011;55581;46.718;7.690;2022-07-06T05:26:41;3.78;;;1.23;;
68608;SDS011;55581;46.718;7.690;2022-07-06T05:29:08;3.90;;;1.30;;
68608;SDS011;55581;46.718;7.690;2022-07-06T05:31:34;4.57;;;1.33;;
68608;SDS011;55581;46.718;7.690;2022-07-06T05:33:59;3.93;;;1.20;;
68608;SDS011;55581;46.718;7.690;2022-07-06T05:36:26;3.57;;;1.20;;
68608;SDS011;55581;46.718;7.690;2022-07-06T05:38:51;4.95;;;1.20;;
68608;SDS011;55581;46.718;7.690;2022-07-06T05:41:17;2.97;;;1.03;;
68608;SDS011;55581;46.718;7.690;2022-07-06T05:43:42;3.17;;;1.20;;
68608;SDS011;55581;46.718;7.690;2022-07-06T05:46:08;3.47;;;1.20;;
68608;SDS011;55581;46.718;7.690;2022-07-06T05:48:33;4.60;;;1.30;;
68608;SDS011;55581;46.718;7.690;2022-07-06T05:51:17;3.70;;;1.40;;
68608;SDS011;55581;46.718;7.690;2022-07-06T05:53:42;3.50;;;1.30;;
68608;SDS011;55581;46.718;7.690;2022-07-06T05:56:10;3.20;;;1.25;;
68608;SDS011;55581;46.718;7.690;2022-07-06T05:58:38;4.63;;;1.10;;
68608;SDS011;55581;46.718;7.690;2022-07-06T06:01:06;6.60;;;1.27;;
68608;SDS011;55581;46.718;7.690;2022-07-06T06:03:32;5.65;;;1.75;;
68608;SDS011;55581;46.718;7.690;2022-07-06T06:05:58;4.00;;;1.23;;
68608;SDS011;55581;46.718;7.690;2022-07-06T06:08:24;3.30;;;1.37;;
68608;SDS011;55581;46.718;7.690;2022-07-06T06:10:49;6.78;;;1.67;;
68608;SDS011;55581;46.718;7.690;2022-07-06T06:13:15;4.43;;;1.30;;
68608;SDS011;55581;46.718;7.690;2022-07-06T06:15:40;4.83;;;1.40;;
68608;SDS011;55581;46.718;7.690;2022-07-06T06:18:06;3.40;;;1.10;;
68608;SDS011;55581;46.718;7.690;2022-07-06T06:20:31;3.58;;;1.42;;
68608;SDS011;55581;46.718;7.690;2022-07-06T06:22:57;4.43;;;1.40;;
68608;SDS011;55581;46.718;7.690;2022-07-06T06:27:54;3.83;;;1.25;;
68608;SDS011;55581;46.718;7.690;2022-07-06T06:30:19;6.20;;;1.20;;
68608;SDS011;55581;46.718;7.690;2022-07-06T06:32:45;3.30;;;1.20;;
68608;SDS011;55581;46.718;7.690;2022-07-06T06:35:10;3.63;;;1.20;;
68608;SDS011;55581;46.718;7.690;2022-07-06T06:37:36;5.87;;;1.40;;
68608;SDS011;55581;46.718;7.690;2022-07-06T06:40:04;3.47;;;1.23;;
68608;SDS011;55581;46.718;7.690;2022-07-06T06:42:31;4.90;;;1.58;;
68608;SDS011;55581;46.718;7.690;2022-07-06T06:44:57;3.53;;;1.30;;
68608;SDS011;55581;46.718;7.690;2022-07-06T06:47:22;3.20;;;1.10;;
68608;SDS011;55581;46.718;7.690;2022-07-06T06:49:48;3.47;;;1.47;;
68608;SDS011;55581;46.718;7.690;2022-07-06T06:52:13;5.27;;;1.20;;
68608;SDS011;55581;46.718;7.690;2022-07-06T06:54:39;5.53;;;1.50;;
68608;SDS011;55581;46.718;7.690;2022-07-06T06:57:06;4.28;;;1.48;;
68608;SDS011;55581;46.718;7.690;2022-07-06T06:59:32;5.03;;;1.60;;
68608;SDS011;55581;46.718;7.690;2022-07-06T07:01:57;3.80;;;1.10;;
68608;SDS011;55581;46.718;7.690;2022-07-06T07:04:25;4.18;;;1.30;;
68608;SDS011;55581;46.718;7.690;2022-07-06T07:06:51;2.83;;;1.03;;
68608;SDS011;55581;46.718;7.690;2022-07-06T07:09:16;4.28;;;1.25;;
68608;SDS011;55581;46.718;7.690;2022-07-06T07:11:41;6.87;;;1.57;;
68608;SDS011;55581;46.718;7.690;2022-07-06T07:14:07;2.80;;;1.20;;
68608;SDS011;55581;46.718;7.690;2022-07-06T07:16:32;3.30;;;1.37;;
68608;SDS011;55581;46.718;7.690;2022-07-06T07:19:03;3.83;;;1.20;;
68608;SDS011;55581;46.718;7.690;2022-07-06T07:21:28;3.78;;;1.15;;
68608;SDS011;55581;46.718;7.690;2022-07-06T07:23:54;3.43;;;1.30;;
68608;SDS011;55581;46.718;7.690;2022-07-06T07:26:21;3.15;;;1.40;;
68608;SDS011;55581;46.718;7.690;2022-07-06T07:28:47;6.80;;;1.67;;
68608;SDS011;55581;46.718;7.690;2022-07-06T07:31:13;13.17;;;8.80;;
68608;SDS011;55581;46.718;7.690;2022-07-06T07:33:41;12.93;;;4.87;;
68608;SDS011;55581;46.718;7.690;2022-07-06T07:36:06;7.93;;;2.70;;
68608;SDS011;55581;46.718;7.690;2022-07-06T07:38:32;6.82;;;1.20;;
68608;SDS011;55581;46.718;7.690;2022-07-06T07:40:58;2.90;;;1.20;;
68608;SDS011;55581;46.718;7.690;2022-07-06T07:43:25;3.72;;;1.63;;
68608;SDS011;55581;46.718;7.690;2022-07-06T07:45:50;4.32;;;1.30;;
68608;SDS011;55581;46.718;7.690;2022-07-06T07:48:18;3.83;;;1.50;;
68608;SDS011;55581;46.718;7.690;2022-07-06T07:50:43;2.83;;;1.30;;
68608;SDS011;55581;46.718;7.690;2022-07-06T07:53:09;3.85;;;1.63;;
68608;SDS011;55581;46.718;7.690;2022-07-06T07:55:34;6.53;;;2.70;;
68608;SDS011;55581;46.718;7.690;2022-07-06T07:57:59;4.73;;;2.10;;
68608;SDS011;55581;46.718;7.690;2022-07-06T08:00:28;4.28;;;1.58;;
68608;SDS011;55581;46.718;7.690;2022-07-06T08:02:56;5.45;;;1.33;;
68608;SDS011;55581;46.718;7.690;2022-07-06T08:05:22;5.33;;;1.60;;
68608;SDS011;55581;46.718;7.690;2022-07-06T08:07:47;4.07;;;1.85;;
68608;SDS011;55581;46.718;7.690;2022-07-06T08:10:13;5.63;;;1.30;;
68608;SDS011;55581;46.718;7.690;2022-07-06T08:12:39;3.10;;;1.50;;
68608;SDS011;55581;46.718;7.690;2022-07-06T08:15:05;4.82;;;1.40;;
68608;SDS011;55581;46.718;7.690;2022-07-06T08:17:32;3.20;;;1.45;;
68608;SDS011;55581;46.718;7.690;2022-07-06T08:19:57;3.90;;;1.47;;
68608;SDS011;55581;46.718;7.690;2022-07-06T08:22:23;4.57;;;1.50;;
68608;SDS011;55581;46.718;7.690;2022-07-06T08:24:50;5.80;;;1.65;;
68608;SDS011;55581;46.718;7.690;2022-07-06T08:27:15;4.30;;;1.30;;
68608;SDS011;55581;46.718;7.690;2022-07-06T08:29:41;4.93;;;1.57;;
68608;SDS011;55581;46.718;7.690;2022-07-06T08:32:07;4.03;;;2.40;;
68608;SDS011;55581;46.718;7.690;2022-07-06T08:34:32;3.93;;;1.57;;
68608;SDS011;55581;46.718;7.690;2022-07-06T08:36:58;3.83;;;1.43;;
68608;SDS011;55581;46.718;7.690;2022-07-06T08:39:23;3.47;;;1.58;;
68608;SDS011;55581;46.718;7.690;2022-07-06T08:41:49;3.33;;;1.40;;
68608;SDS011;55581;46.718;7.690;2022-07-06T08:44:16;5.47;;;1.60;;
68608;SDS011;55581;46.718;7.690;2022-07-06T08:46:43;5.07;;;1.83;;
68608;SDS011;55581;46.718;7.690;2022-07-06T08:49:13;4.60;;;1.63;;
68608;SDS011;55581;46.718;7.690;2022-07-06T08:51:40;4.97;;;1.67;;
68608;SDS011;55581;46.718;7.690;2022-07-06T08:54:07;3.67;;;1.50;;
68608;SDS011;55581;46.718;7.690;2022-07-06T08:56:33;4.15;;;1.70;;
68608;SDS011;55581;46.718;7.690;2022-07-06T08:58:58;4.30;;;1.57;;
68608;SDS011;55581;46.718;7.690;2022-07-06T09:01:26;4.32;;;1.40;;
68608;SDS011;55581;46.718;7.690;2022-07-06T09:03:53;4.47;;;1.90;;
68608;SDS011;55581;46.718;7.690;2022-07-06T09:06:23;4.27;;;1.40;;
68608;SDS011;55581;46.718;7.690;2022-07-06T09:08:49;4.40;;;1.40;;
68608;SDS011;55581;46.718;7.690;2022-07-06T09:11:20;5.95;;;1.90;;
68608;SDS011;55581;46.718;7.690;2022-07-06T09:13:46;6.72;;;2.47;;
68608;SDS011;55581;46.718;7.690;2022-07-06T09:16:16;6.38;;;1.90;;
68608;SDS011;55581;46.718;7.690;2022-07-06T09:18:45;6.57;;;2.20;;
68608;SDS011;55581;46.718;7.690;2022-07-06T09:21:12;5.22;;;1.70;;
68608;SDS011;55581;46.718;7.690;2022-07-06T09:23:52;3.35;;;1.73;;
68608;SDS011;55581;46.718;7.690;2022-07-06T09:26:20;5.63;;;2.10;;
68608;SDS011;55581;46.718;7.690;2022-07-06T09:28:48;3.83;;;2.38;;
68608;SDS011;55581;46.718;7.690;2022-07-06T09:31:16;6.33;;;1.60;;
68608;SDS011;55581;46.718;7.690;2022-07-06T09:33:56;3.40;;;1.70;;
68608;SDS011;55581;46.718;7.690;2022-07-06T09:41:49;4.13;;;1.70;;
68608;SDS011;55581;46.718;7.690;2022-07-06T09:44:29;3.80;;;1.90;;
68608;SDS011;55581;46.718;7.690;2022-07-06T09:46:57;5.45;;;1.67;;
68608;SDS011;55581;46.718;7.690;2022-07-06T09:49:24;4.47;;;1.77;;
68608;SDS011;55581;46.718;7.690;2022-07-06T09:51:51;3.45;;;1.83;;
68608;SDS011;55581;46.718;7.690;2022-07-06T09:54:20;5.95;;;1.95;;
68608;SDS011;55581;46.718;7.690;2022-07-06T09:56:46;3.43;;;1.93;;
68608;SDS011;55581;46.718;7.690;2022-07-06T09:59:16;4.85;;;1.90;;
68608;SDS011;55581;46.718;7.690;2022-07-06T10:01:43;5.22;;;1.85;;
68608;SDS011;55581;46.718;7.690;2022-07-06T10:04:10;4.03;;;1.53;;
68608;SDS011;55581;46.718;7.690;2022-07-06T10:06:40;3.95;;;1.70;;
68608;SDS011;55581;46.718;7.690;2022-07-06T10:09:12;5.82;;;1.42;;
68608;SDS011;55581;46.718;7.690;2022-07-06T10:11:39;3.30;;;1.50;;
68608;SDS011;55581;46.718;7.690;2022-07-06T10:14:28;3.65;;;1.70;;
68608;SDS011;55581;46.718;7.690;2022-07-06T10:16:56;5.07;;;2.00;;
68608;SDS011;55581;46.718;7.690;2022-07-06T10:19:25;5.28;;;1.50;;
68608;SDS011;55581;46.718;7.690;2022-07-06T10:21:52;3.50;;;1.40;;
68608;SDS011;55581;46.718;7.690;2022-07-06T10:24:18;4.50;;;1.60;;
68608;SDS011;55581;46.718;7.690;2022-07-06T10:26:47;3.47;;;1.65;;
68608;SDS011;55581;46.718;7.690;2022-07-06T10:29:13;4.75;;;1.77;;
68608;SDS011;55581;46.718;7.690;2022-07-06T10:31:40;4.17;;;1.70;;
68608;SDS011;55581;46.718;7.690;2022-07-06T10:34:13;4.20;;;1.53;;
68608;SDS011;55581;46.718;7.690;2022-07-06T10:36:44;3.60;;;1.60;;
68608;SDS011;55581;46.718;7.690;2022-07-06T10:39:16;4.70;;;1.73;;
68608;SDS011;55581;46.718;7.690;2022-07-06T10:46:02;3.97;;;1.55;;
68608;SDS011;55581;46.718;7.690;2022-07-06T10:50:37;3.20;;;1.40;;
68608;SDS011;55581;46.718;7.690;2022-07-06T10:53:03;3.23;;;1.60;;
68608;SDS011;55581;46.718;7.690;2022-07-06T10:55:37;6.18;;;1.88;;
68608;SDS011;55581;46.718;7.690;2022-07-06T10:58:04;3.08;;;1.60;;
68608;SDS011;55581;46.718;7.690;2022-07-06T11:06:31;5.73;;;1.70;;
68608;SDS011;55581;46.718;7.690;2022-07-06T11:09:04;5.05;;;1.98;;
68608;SDS011;55581;46.718;7.690;2022-07-06T11:11:38;3.60;;;1.60;;
68608;SDS011;55581;46.718;7.690;2022-07-06T11:14:09;8.48;;;2.17;;
68608;SDS011;55581;46.718;7.690;2022-07-06T11:24:28;3.28;;;1.60;;
68608;SDS011;55581;46.718;7.690;2022-07-06T11:26:57;7.55;;;1.77;;
68608;SDS011;55581;46.718;7.690;2022-07-06T11:29:25;3.30;;;1.75;;
68608;SDS011;55581;46.718;7.690;2022-07-06T11:31:56;6.20;;;1.77;;
68608;SDS011;55581;46.718;7.690;2022-07-06T11:34:25;5.88;;;1.60;;
68608;SDS011;55581;46.718;7.690;2022-07-06T11:36:55;3.45;;;1.70;;
68608;SDS011;55581;46.718;7.690;2022-07-06T11:39:30;3.22;;;1.58;;
68608;SDS011;55581;46.718;7.690;2022-07-06T11:42:15;4.18;;;1.65;;
68608;SDS011;55581;46.718;7.690;2022-07-06T11:44:43;3.87;;;1.50;;
68608;SDS011;55581;46.718;7.690;2022-07-06T11:47:10;4.45;;;1.88;;
68608;SDS011;55581;46.718;7.690;2022-07-06T11:49:41;4.22;;;1.70;;
68608;SDS011;55581;46.718;7.690;2022-07-06T11:52:07;2.80;;;1.48;;
68608;SDS011;55581;46.718;7.690;2022-07-06T11:54:34;3.42;;;1.98;;
68608;SDS011;55581;46.718;7.690;2022-07-06T11:56:59;5.40;;;1.50;;
68608;SDS011;55581;46.718;7.690;2022-07-06T11:59:29;3.22;;;1.65;;
68608;SDS011;55581;46.718;7.690;2022-07-06T12:04:32;4.95;;;1.95;;
68608;SDS011;55581;46.718;7.690;2022-07-06T12:07:01;4.30;;;1.92;;
68608;SDS011;55581;46.718;7.690;2022-07-06T12:09:31;3.67;;;1.40;;
68608;SDS011;55581;46.718;7.690;2022-07-06T12:11:59;4.10;;;1.70;;
68608;SDS011;55581;46.718;7.690;2022-07-06T12:14:32;3.70;;;1.63;;
68608;SDS011;55581;46.718;7.690;2022-07-06T12:17:17;4.90;;;1.50;;
68608;SDS011;55581;46.718;7.690;2022-07-06T12:19:42;4.43;;;1.60;;
68608;SDS011;55581;46.718;7.690;2022-07-06T12:22:08;4.77;;;1.80;;
68608;SDS011;55581;46.718;7.690;2022-07-06T12:24:34;7.03;;;1.80;;
68608;SDS011;55581;46.718;7.690;2022-07-06T12:27:11;4.53;;;1.53;;
68608;SDS011;55581;46.718;7.690;2022-07-06T12:29:39;6.00;;;1.88;;
68608;SDS011;55581;46.718;7.690;2022-07-06T12:32:05;5.32;;;1.98;;
68608;SDS011;55581;46.718;7.690;2022-07-06T12:34:30;5.03;;;1.50;;
68608;SDS011;55581;46.718;7.690;2022-07-06T12:36:59;3.60;;;1.67;;
68608;SDS011;55581;46.718;7.690;2022-07-06T12:39:31;3.95;;;1.77;;
68608;SDS011;55581;46.718;7.690;2022-07-06T12:42:03;4.10;;;1.67;;
68608;SDS011;55581;46.718;7.690;2022-07-06T12:44:32;3.67;;;1.92;;
68608;SDS011;55581;46.718;7.690;2022-07-06T12:47:02;4.50;;;1.70;;
68608;SDS011;55581;46.718;7.690;2022-07-06T12:49:30;3.20;;;1.58;;
68608;SDS011;55581;46.718;7.690;2022-07-06T12:57:23;3.47;;;1.90;;
68608;SDS011;55581;46.718;7.690;2022-07-06T13:02:26;3.30;;;1.38;;
68608;SDS011;55581;46.718;7.690;2022-07-06T13:07:22;3.33;;;1.52;;
68608;SDS011;55581;46.718;7.690;2022-07-06T13:09:48;3.30;;;1.83;;
68608;SDS011;55581;46.718;7.690;2022-07-06T13:12:14;5.20;;;1.70;;
68608;SDS011;55581;46.718;7.690;2022-07-06T13:14:40;3.35;;;1.50;;
68608;SDS011;55581;46.718;7.690;2022-07-06T13:17:05;5.25;;;1.75;;
68608;SDS011;55581;46.718;7.690;2022-07-06T13:19:30;3.67;;;1.60;;
68608;SDS011;55581;46.718;7.690;2022-07-06T13:21:56;4.97;;;1.80;;
68608;SDS011;55581;46.718;7.690;2022-07-06T13:24:21;3.73;;;1.80;;
68608;SDS011;55581;46.718;7.690;2022-07-06T13:26:48;4.50;;;1.85;;
68608;SDS011;55581;46.718;7.690;2022-07-06T13:29:13;3.77;;;1.67;;
68608;SDS011;55581;46.718;7.690;2022-07-06T13:31:44;4.47;;;2.22;;
68608;SDS011;55581;46.718;7.690;2022-07-06T13:34:09;4.17;;;1.90;;
68608;SDS011;55581;46.718;7.690;2022-07-06T13:36:35;5.15;;;1.70;;
68608;SDS011;55581;46.718;7.690;2022-07-06T13:39:04;3.30;;;1.40;;
68608;SDS011;55581;46.718;7.690;2022-07-06T13:41:29;4.03;;;1.58;;
68608;SDS011;55581;46.718;7.690;2022-07-06T13:43:57;3.60;;;1.55;;
68608;SDS011;55581;46.718;7.690;2022-07-06T13:46:25;3.22;;;1.60;;
68608;SDS011;55581;46.718;7.690;2022-07-06T13:48:51;4.40;;;1.60;;
68608;SDS011;55581;46.718;7.690;2022-07-06T13:51:17;3.33;;;1.50;;
68608;SDS011;55581;46.718;7.690;2022-07-06T13:53:45;3.60;;;1.42;;
68608;SDS011;55581;46.718;7.690;2022-07-06T13:56:11;3.40;;;1.50;;
68608;SDS011;55581;46.718;7.690;2022-07-06T13:58:37;4.25;;;1.80;;
68608;SDS011;55581;46.718;7.690;2022-07-06T14:01:05;3.92;;;1.77;;
68608;SDS011;55581;46.718;7.690;2022-07-06T14:03:31;3.63;;;1.50;;
68608;SDS011;55581;46.718;7.690;2022-07-06T14:06:00;5.65;;;1.70;;
68608;SDS011;55581;46.718;7.690;2022-07-06T14:08:31;3.10;;;1.40;;
68608;SDS011;55581;46.718;7.690;2022-07-06T14:10:57;4.28;;;1.60;;
68608;SDS011;55581;46.718;7.690;2022-07-06T14:13:22;6.47;;;1.83;;
68608;SDS011;55581;46.718;7.690;2022-07-06T14:15:48;4.00;;;2.08;;
68608;SDS011;55581;46.718;7.690;2022-07-06T14:18:17;4.03;;;2.08;;
68608;SDS011;55581;46.718;7.690;2022-07-06T14:20:44;4.28;;;2.00;;
68608;SDS011;55581;46.718;7.690;2022-07-06T14:23:10;5.43;;;1.83;;
68608;SDS011;55581;46.718;7.690;2022-07-06T14:25:37;4.53;;;1.80;;
68608;SDS011;55581;46.718;7.690;2022-07-06T14:28:05;3.75;;;2.10;;
68608;SDS011;55581;46.718;7.690;2022-07-06T14:30:31;3.22;;;1.67;;
68608;SDS011;55581;46.718;7.690;2022-07-06T14:32:58;3.60;;;1.80;;
68608;SDS011;55581;46.718;7.690;2022-07-06T14:35:26;4.57;;;1.93;;
68608;SDS011;55581;46.718;7.690;2022-07-06T14:37:52;5.35;;;2.10;;
68608;SDS011;55581;46.718;7.690;2022-07-06T14:40:19;4.80;;;2.03;;
68608;SDS011;55581;46.718;7.690;2022-07-06T14:42:47;3.10;;;1.90;;
68608;SDS011;55581;46.718;7.690;2022-07-06T14:45:15;4.07;;;1.73;;
68608;SDS011;55581;46.718;7.690;2022-07-06T14:47:40;4.55;;;1.92;;
68608;SDS011;55581;46.718;7.690;2022-07-06T14:50:08;4.60;;;2.00;;
68608;SDS011;55581;46.718;7.690;2022-07-06T14:52:43;4.45;;;2.10;;
68608;SDS011;55581;46.718;7.690;2022-07-06T14:55:13;4.03;;;1.90;;
68608;SDS011;55581;46.718;7.690;2022-07-06T14:57:39;4.80;;;1.90;;
68608;SDS011;55581;46.718;7.690;2022-07-06T15:00:04;3.60;;;2.07;;
68608;SDS011;55581;46.718;7.690;2022-07-06T15:02:33;3.97;;;2.17;;
68608;SDS011;55581;46.718;7.690;2022-07-06T15:04:59;7.05;;;2.53;;
68608;SDS011;55581;46.718;7.690;2022-07-06T15:07:25;4.63;;;2.10;;
68608;SDS011;55581;46.718;7.690;2022-07-06T15:09:50;4.57;;;2.37;;
68608;SDS011;55581;46.718;7.690;2022-07-06T15:12:16;3.25;;;1.80;;
68608;SDS011;55581;46.718;7.690;2022-07-06T15:14:41;3.70;;;2.00;;
68608;SDS011;55581;46.718;7.690;2022-07-06T15:17:07;3.43;;;1.70;;
68608;SDS011;55581;46.718;7.690;2022-07-06T15:19:32;6.38;;;2.50;;
68608;SDS011;55581;46.718;7.690;2022-07-06T15:22:00;6.22;;;2.40;;
68608;SDS011;55581;46.718;7.690;2022-07-06T15:24:25;5.17;;;2.13;;
68608;SDS011;55581;46.718;7.690;2022-07-06T15:26:51;4.57;;;2.27;;
68608;SDS011;55581;46.718;7.690;2022-07-06T15:29:17;4.68;;;1.73;;